HomeShort term forecast

Short term forecast

Graphical weather forecast for the next 48 hours for Montreal:
Short term forecast
This weather forecast is automatically refreshed every 3 hours.

Hourly Experimental Forecast for the next 48 hours ®

Overall summary: Light rain throughout the day.

 Date & Hour   Temp   Feel   Baro   Hum   Speed & Bearing   Wind Gust   Precip.%   Precip.   Visibility   Cloud cover   Conditions 
 25/01/2020 - 18:00  -0.4°C  -5.5°C  1014.8 hPa  93%  18.6 km/h   33.7 km/h  100%  1.15 mm/h  7.0km  99%  Light Snow 
 25/01/2020 - 19:00  -0.1°C  -5.4°C  1013.7 hPa  94%  20.7 km/h   40.6 km/h  85%  1.64 mm/h  13.5km  100%  Light Rain 
 25/01/2020 - 20:00  0.5°C  -4.6°C  1012.8 hPa  93%  19.8 km/h   39.2 km/h  70%  1.63 mm/h  15.5km  100%  Light Rain 
 25/01/2020 - 21:00  0.7°C  -4.3°C  1011.3 hPa  95%  19.6 km/h   38.3 km/h  74%  1.57 mm/h  12.5km  96%  Light Rain 
 25/01/2020 - 22:00  0.9°C  -3.9°C  1009.9 hPa  95%  18.5 km/h   35.9 km/h  74%  1.19 mm/h  16.1km  100%  Light Rain 
 25/01/2020 - 23:00  0.8°C  -3.8°C  1008.6 hPa  96%  17.1 km/h   33.5 km/h  67%  1.60 mm/h  10.6km  98%  Light Rain 
 26/01/2020 - 00:00  0.7°C  -3.6°C  1007.2 hPa  96%  15.4 km/h   32.1 km/h  58%  1.36 mm/h  7.1km  100%  Possible Light Rain 
 26/01/2020 - 01:00  0.8°C  -3.4°C  1006.0 hPa  96%  14.8 km/h   29.4 km/h  56%  1.54 mm/h  3.9km  99%  Possible Light Rain 
 26/01/2020 - 02:00  0.8°C  -2.5°C  1005.2 hPa  96%  10.7 km/h   23.4 km/h  41%  0.77 mm/h  4.7km  99%  Possible Light Rain 
 26/01/2020 - 03:00  0.8°C  -1.5°C  1005.0 hPa  96%  7.1 km/h   13.9 km/h  39%  0.41 mm/h  4.8km  91%  Possible Light Rain 
 26/01/2020 - 04:00  0.7°C  -1.3°C  1004.8 hPa  96%  6.2 km/h   13.8 km/h  31%  0.17 mm/h  4.7km  83%  Possible Drizzle 
 26/01/2020 - 05:00  0.5°C  -2.1°C  1004.7 hPa  96%  8.1 km/h   19.5 km/h  26%  0.09 mm/h  4.8km  81%  Possible Drizzle 
 26/01/2020 - 06:00  0.4°C  -3.0°C  1004.6 hPa  96%  10.9 km/h   27.1 km/h  20%  0.06 mm/h  5.1km  84%  Mostly Cloudy 
 26/01/2020 - 07:00  0.4°C  -3.6°C  1004.6 hPa  95%  13.3 km/h   33.1 km/h  14%  0.02 mm/h  5.2km  89%  Overcast 
 26/01/2020 - 08:00  0.8°C  -3.4°C  1004.2 hPa  94%  15.3 km/h   39.9 km/h  15%  0.02 mm/h  1.0km  100%  Foggy 
 26/01/2020 - 09:00  0.7°C  -3.6°C  1004.0 hPa  95%  15.4 km/h   39.9 km/h  16%  0.02 mm/h  0.6km  100%  Foggy 
 26/01/2020 - 10:00  0.7°C  -3.6°C  1003.7 hPa  96%  15.5 km/h   39.4 km/h  20%  0.03 mm/h  0.3km  100%  Foggy 
 26/01/2020 - 11:00  0.7°C  -3.7°C  1003.2 hPa  96%  15.9 km/h   39.2 km/h  29%  0.04 mm/h  3.0km  100%  Possible Flurries 
 26/01/2020 - 12:00  0.5°C  -4.0°C  1002.6 hPa  97%  16.3 km/h   38.5 km/h  35%  0.06 mm/h  6.6km  100%  Possible Flurries 
 26/01/2020 - 13:00  0.7°C  -3.9°C  1002.1 hPa  97%  16.8 km/h   37.9 km/h  40%  0.09 mm/h  8.6km  100%  Possible Flurries 
 26/01/2020 - 14:00  0.7°C  -4.0°C  1001.9 hPa  96%  17.1 km/h   37.7 km/h  44%  0.13 mm/h  7.8km  100%  Possible Flurries 
 26/01/2020 - 15:00  0.6°C  -4.1°C  1001.9 hPa  96%  17.4 km/h   37.7 km/h  48%  0.22 mm/h  5.6km  100%  Possible Flurries 
 26/01/2020 - 16:00  0.5°C  -4.3°C  1001.8 hPa  96%  17.7 km/h   37.9 km/h  46%  0.33 mm/h  3.6km  100%  Possible Flurries 
 26/01/2020 - 17:00  0.4°C  -4.4°C  1001.7 hPa  96%  17.6 km/h   38.7 km/h  40%  0.38 mm/h  2.3km  100%  Possible Flurries 
 26/01/2020 - 18:00  0.4°C  -4.3°C  1001.6 hPa  96%  17.5 km/h   39.7 km/h  39%  0.41 mm/h  1.1km  100%  Possible Light Snow 
 26/01/2020 - 19:00  0.5°C  -4.2°C  1001.5 hPa  96%  17.5 km/h   40.5 km/h  37%  0.40 mm/h  0.3km  100%  Possible Flurries 
 26/01/2020 - 20:00  0.7°C  -4.1°C  1001.3 hPa  97%  17.9 km/h   41.1 km/h  34%  0.28 mm/h  0.4km  100%  Possible Flurries 
 26/01/2020 - 21:00  0.8°C  -4.0°C  1001.2 hPa  96%  18.3 km/h   41.4 km/h  28%  0.15 mm/h  0.9km  100%  Possible Flurries 
 26/01/2020 - 22:00  0.8°C  -4.0°C  1001.0 hPa  95%  18.4 km/h   41.0 km/h  24%  0.08 mm/h  1.2km  100%  Foggy 
 26/01/2020 - 23:00  0.7°C  -4.0°C  1000.7 hPa  95%  17.4 km/h   39.4 km/h  21%  0.06 mm/h  0.7km  100%  Foggy 
 27/01/2020 - 00:00  0.8°C  -3.6°C  1000.4 hPa  94%  16.0 km/h   37.1 km/h  18%  0.06 mm/h  0.1km  100%  Foggy 
 27/01/2020 - 01:00  0.4°C  -3.9°C  1000.1 hPa  96%  14.8 km/h   34.7 km/h  15%  0.06 mm/h  0.1km  100%  Foggy 
 27/01/2020 - 02:00  0.5°C  -3.7°C  1000.0 hPa  95%  14.3 km/h   32.1 km/h  15%  0.06 mm/h  1.4km  100%  Foggy 
 27/01/2020 - 03:00  0.7°C  -3.4°C  999.8 hPa  94%  14.1 km/h   29.5 km/h  14%  0.07 mm/h  3.4km  100%  Overcast 
 27/01/2020 - 04:00  0.6°C  -3.5°C  999.8 hPa  93%  14.0 km/h   27.5 km/h  13%  0.06 mm/h  4.6km  100%  Overcast 
 27/01/2020 - 05:00  0.5°C  -3.6°C  999.9 hPa  92%  13.8 km/h   26.7 km/h  10%  0.04 mm/h  6.2km  100%  Overcast 
 27/01/2020 - 06:00  -0.1°C  -4.3°C  1000.1 hPa  93%  13.8 km/h   26.5 km/h  8%  0.02 mm/h  7.8km  99%  Overcast 
 27/01/2020 - 07:00  -0.6°C  -4.9°C  1000.3 hPa  94%  13.9 km/h   26.5 km/h  7%  0.01 mm/h  9.6km  99%  Overcast 
 27/01/2020 - 08:00  -0.8°C  -5.3°C  1000.4 hPa  94%  14.4 km/h   26.1 km/h  6%  0.01 mm/h  11.5km  97%  Overcast 
 27/01/2020 - 09:00  -0.8°C  -5.4°C  1000.7 hPa  92%  15.1 km/h   25.7 km/h  0%  --  13.8km  94%  Overcast 
 27/01/2020 - 10:00  -0.5°C  -5.1°C  1000.7 hPa  90%  15.6 km/h   25.8 km/h  0%  --  16.1km  91%  Overcast 
 27/01/2020 - 11:00  0.0°C  -4.6°C  1000.7 hPa  91%  16.1 km/h   27.0 km/h  14%  0.01 mm/h  16.1km  88%  Overcast 
 27/01/2020 - 12:00  0.5°C  -4.1°C  1000.6 hPa  92%  16.4 km/h   28.8 km/h  17%  0.02 mm/h  16.1km  85%  Mostly Cloudy 
 27/01/2020 - 13:00  1.1°C  -3.4°C  1000.5 hPa  91%  16.5 km/h   29.9 km/h  19%  0.04 mm/h  16.1km  85%  Mostly Cloudy 
 27/01/2020 - 14:00  1.3°C  -3.0°C  1000.7 hPa  88%  16.2 km/h   29.8 km/h  19%  0.04 mm/h  16.1km  89%  Overcast 
 27/01/2020 - 15:00  1.1°C  -3.1°C  1001.1 hPa  86%  15.6 km/h   29.0 km/h  19%  0.04 mm/h  16.1km  94%  Overcast 
 27/01/2020 - 16:00  0.8°C  -3.5°C  1001.5 hPa  86%  15.1 km/h   28.2 km/h  17%  0.04 mm/h  16.1km  99%  Overcast 
 27/01/2020 - 17:00  0.5°C  -3.8°C  1002.1 hPa  87%  14.9 km/h   27.5 km/h  15%  0.03 mm/h  16.1km  100%  Overcast 
Test

 

Past weather and reports

Past weatherFind in this section the past weather conditions, weather archive, graphics, reports and statistics.

Current conditions

Current weather condition for MontrealAll you need to know about the current weather conditions for Montreal. Weather data is updated every 10 minutes.

Weather forecast

Current Montreal weatherSince 2004, celinium.com website has provided accurate weather forecast for Montreal's island.